Time;durP1;ratioP1;P1;durP2;ratioP2;P2;SDS_P1;SDS_P2;PMS_P1;PMS_P2;Temp;Humidity;BMP_temperature;BMP_pressure;BME280_temperature;BME280_humidity;BME280_pressure;Samples;Min_cycle;Max_cycle;Signal;HPM_P1;HPM_P2
2023/06/21 00:02:18;;;;;;;11.68;8.10;;;;;;;;;;5011116;28;20891;-60
2023/06/21 00:04:43;;;;;;;11.23;7.88;;;;;;;;;;5011689;28;20113;-60
2023/06/21 00:07:08;;;;;;;12.48;8.27;;;;;;;;;;5009960;28;20065;-60
2023/06/21 00:09:34;;;;;;;13.40;8.13;;;;;;;;;;5014269;28;20028;-59
2023/06/21 00:11:59;;;;;;;13.65;7.88;;;;;;;;;;5008272;28;20034;-59
2023/06/21 00:14:24;;;;;;;13.27;7.30;;;;;;;;;;5012927;28;20034;-59
2023/06/21 00:16:50;;;;;;;11.30;7.15;;;;;;;;;;5013783;28;20117;-59
2023/06/21 00:19:15;;;;;;;12.75;6.72;;;;;;;;;;4996098;28;20093;-59
2023/06/21 00:21:41;;;;;;;10.90;6.88;;;;;;;;;;4993871;28;20030;-59
2023/06/21 00:24:09;;;;;;;12.43;7.22;;;;;;;;;;4994016;28;20080;-59
2023/06/21 00:26:35;;;;;;;11.07;7.10;;;;;;;;;;4994256;28;20050;-59
2023/06/21 00:29:00;;;;;;;12.73;7.35;;;;;;;;;;4994654;28;20049;-59
2023/06/21 00:31:26;;;;;;;14.43;7.40;;;;;;;;;;5007049;28;20402;-59
2023/06/21 00:33:51;;;;;;;14.77;7.65;;;;;;;;;;5014313;28;20037;-60
2023/06/21 00:36:17;;;;;;;12.63;7.80;;;;;;;;;;4996875;28;20030;-59
2023/06/21 00:38:42;;;;;;;13.10;7.55;;;;;;;;;;4994438;28;20093;-58
2023/06/21 00:41:08;;;;;;;10.90;7.82;;;;;;;;;;4996533;28;20046;-59
2023/06/21 00:43:34;;;;;;;11.48;8.05;;;;;;;;;;5014069;28;20026;-58
2023/06/21 00:46:00;;;;;;;11.25;7.38;;;;;;;;;;5007879;28;20088;-59
2023/06/21 00:48:29;;;;;;;12.60;7.60;;;;;;;;;;4993739;28;20034;-59
2023/06/21 00:50:58;;;;;;;9.57;7.15;;;;;;;;;;5004881;28;20030;-59
2023/06/21 00:53:26;;;;;;;10.02;6.93;;;;;;;;;;4997493;28;20030;-59
2023/06/21 00:55:51;;;;;;;10.82;6.85;;;;;;;;;;4994191;28;20046;-59
2023/06/21 00:58:20;;;;;;;10.63;6.50;;;;;;;;;;4992705;28;20030;-58
2023/06/21 01:00:46;;;;;;;10.55;6.88;;;;;;;;;;5008993;28;20121;-59
2023/06/21 01:03:12;;;;;;;8.65;6.53;;;;;;;;;;5032653;28;20025;-59
2023/06/21 01:05:38;;;;;;;10.23;6.25;;;;;;;;;;5004487;28;20167;-58
2023/06/21 01:08:36;;;;;;;9.13;6.43;;;;;;;;;;4993420;28;20081;-59
2023/06/21 01:11:23;;;;;;;8.73;6.00;;;;;;;;;;5001909;28;20100;-59
2023/06/21 01:14:17;;;;;;;7.57;5.50;;;;;;;;;;5006985;28;20030;-59
2023/06/21 01:16:45;;;;;;;7.35;5.38;;;;;;;;;;4994460;28;20061;-59
2023/06/21 01:19:47;;;;;;;8.70;5.93;;;;;;;;;;4992416;28;20464;-59
2023/06/21 01:22:37;;;;;;;7.35;5.20;;;;;;;;;;4992926;28;20064;-59
2023/06/21 01:25:12;;;;;;;7.90;5.75;;;;;;;;;;4991610;28;20395;-59
2023/06/21 01:28:00;;;;;;;9.15;5.78;;;;;;;;;;4994018;28;20062;-59
2023/06/21 01:30:28;;;;;;;7.22;5.30;;;;;;;;;;5007731;28;20068;-59
2023/06/21 01:32:55;;;;;;;7.53;5.20;;;;;;;;;;5005975;28;20037;-58
2023/06/21 01:35:22;;;;;;;7.05;5.57;;;;;;;;;;5012336;28;20046;-59
2023/06/21 01:37:51;;;;;;;8.60;5.60;;;;;;;;;;4993089;28;20463;-59
2023/06/21 01:40:16;;;;;;;9.23;5.65;;;;;;;;;;4991685;28;20505;-59
2023/06/21 01:42:41;;;;;;;7.43;5.57;;;;;;;;;;5010138;28;20037;-58
2023/06/21 01:45:08;;;;;;;9.68;5.32;;;;;;;;;;5011959;28;20109;-59
2023/06/21 01:47:34;;;;;;;8.75;5.55;;;;;;;;;;5003626;28;20038;-58
2023/06/21 01:50:04;;;;;;;8.82;6.07;;;;;;;;;;4991483;28;20030;-59
2023/06/21 01:52:31;;;;;;;7.72;5.55;;;;;;;;;;4992414;28;20022;-59
2023/06/21 01:54:57;;;;;;;8.15;5.70;;;;;;;;;;4992837;28;20022;-59
2023/06/21 01:57:24;;;;;;;7.68;5.68;;;;;;;;;;5011286;28;20025;-59
2023/06/21 01:59:50;;;;;;;9.65;5.97;;;;;;;;;;5027404;28;20045;-58
2023/06/21 02:02:18;;;;;;;8.55;6.13;;;;;;;;;;5015067;28;20029;-58
2023/06/21 02:04:45;;;;;;;7.45;6.00;;;;;;;;;;5029496;28;20033;-58
2023/06/21 02:07:13;;;;;;;8.27;6.05;;;;;;;;;;5007707;28;20041;-59
2023/06/21 02:09:40;;;;;;;7.35;5.88;;;;;;;;;;5032222;28;20033;-59
2023/06/21 02:12:06;;;;;;;7.97;6.03;;;;;;;;;;5024457;28;20097;-60
2023/06/21 02:14:31;;;;;;;7.72;5.88;;;;;;;;;;5027657;28;20083;-59
2023/06/21 02:16:57;;;;;;;7.43;5.75;;;;;;;;;;5026384;28;20029;-59
2023/06/21 02:19:24;;;;;;;14.63;6.15;;;;;;;;;;5001907;28;20058;-59
2023/06/21 02:21:50;;;;;;;8.13;5.93;;;;;;;;;;4992569;28;20113;-58
2023/06/21 02:24:16;;;;;;;8.23;5.60;;;;;;;;;;4991587;28;20142;-59
2023/06/21 02:26:41;;;;;;;7.28;5.57;;;;;;;;;;4992335;28;20030;-59
2023/06/21 02:29:07;;;;;;;8.48;5.55;;;;;;;;;;4992155;28;20487;-59
2023/06/21 02:31:33;;;;;;;9.32;5.47;;;;;;;;;;4991168;28;20040;-59
2023/06/21 02:33:58;;;;;;;8.02;5.50;;;;;;;;;;5003473;28;20037;-59
2023/06/21 02:36:24;;;;;;;7.95;5.40;;;;;;;;;;5001997;28;20427;-59
2023/06/21 02:38:49;;;;;;;8.77;5.80;;;;;;;;;;4992352;28;20109;-58
2023/06/21 02:41:15;;;;;;;8.50;5.38;;;;;;;;;;4998063;28;20382;-58
2023/06/21 02:43:40;;;;;;;7.50;4.93;;;;;;;;;;5008599;28;20034;-58
2023/06/21 02:46:05;;;;;;;7.43;5.10;;;;;;;;;;5011948;28;20113;-58
2023/06/21 02:48:31;;;;;;;8.20;5.20;;;;;;;;;;5011211;28;20062;-58
2023/06/21 02:50:57;;;;;;;7.00;5.10;;;;;;;;;;5010640;28;20037;-58
2023/06/21 02:53:22;;;;;;;7.13;5.03;;;;;;;;;;5004258;28;20045;-58
2023/06/21 02:55:47;;;;;;;7.15;5.28;;;;;;;;;;5006515;28;20093;-58
2023/06/21 02:58:13;;;;;;;7.28;5.15;;;;;;;;;;5005876;28;20037;-58
2023/06/21 03:00:40;;;;;;;6.95;5.13;;;;;;;;;;4993963;28;20044;-59
2023/06/21 03:03:06;;;;;;;8.60;5.35;;;;;;;;;;4994869;28;20390;-58
2023/06/21 03:05:36;;;;;;;7.93;5.30;;;;;;;;;;5006728;28;20034;-60
2023/06/21 03:08:07;;;;;;;9.05;5.10;;;;;;;;;;5006377;28;20045;-59
2023/06/21 03:10:33;;;;;;;8.55;5.70;;;;;;;;;;4997828;28;20530;-58
2023/06/21 03:12:58;;;;;;;8.02;5.40;;;;;;;;;;5004162;28;20037;-59
2023/06/21 03:15:24;;;;;;;8.80;5.30;;;;;;;;;;5007409;28;20037;-58
2023/06/21 03:17:50;;;;;;;10.00;5.80;;;;;;;;;;5017593;28;20054;-57
2023/06/21 03:20:15;;;;;;;8.55;5.70;;;;;;;;;;5016274;28;20113;-58
2023/06/21 03:22:42;;;;;;;10.63;5.90;;;;;;;;;;5017804;28;20038;-58
2023/06/21 03:25:14;;;;;;;9.18;5.88;;;;;;;;;;5015492;28;20074;-59
2023/06/21 03:27:40;;;;;;;8.07;5.30;;;;;;;;;;5011948;28;20394;-57
2023/06/21 03:30:13;;;;;;;7.85;5.60;;;;;;;;;;4998999;28;20035;-57
2023/06/21 03:32:46;;;;;;;8.27;5.85;;;;;;;;;;4998378;28;20034;-58
2023/06/21 03:35:15;;;;;;;8.18;5.60;;;;;;;;;;4997765;28;20518;-58
2023/06/21 03:37:41;;;;;;;8.95;5.70;;;;;;;;;;5008656;28;20033;-55
2023/06/21 03:40:11;;;;;;;7.80;5.47;;;;;;;;;;5014423;28;20057;-61
2023/06/21 03:42:37;;;;;;;8.95;5.40;;;;;;;;;;5011725;28;20121;-60
2023/06/21 03:45:02;;;;;;;8.80;5.72;;;;;;;;;;5017667;28;20110;-60
2023/06/21 03:47:28;;;;;;;10.73;6.30;;;;;;;;;;5016999;28;20167;-60
2023/06/21 03:49:57;;;;;;;9.00;5.88;;;;;;;;;;5018103;28;20026;-60
2023/06/21 03:52:23;;;;;;;7.70;5.63;;;;;;;;;;5012454;28;20561;-60
2023/06/21 03:54:52;;;;;;;8.75;5.95;;;;;;;;;;4998306;28;20399;-59
2023/06/21 03:57:18;;;;;;;9.30;5.75;;;;;;;;;;4997365;28;20085;-59
2023/06/21 03:59:43;;;;;;;10.50;6.47;;;;;;;;;;4998531;28;20030;-59
2023/06/21 04:02:08;;;;;;;9.02;6.43;;;;;;;;;;4998285;28;20085;-60
2023/06/21 04:04:34;;;;;;;8.73;6.68;;;;;;;;;;4997897;28;20030;-59
2023/06/21 04:06:59;;;;;;;10.10;6.47;;;;;;;;;;4998371;28;20426;-61
2023/06/21 04:09:25;;;;;;;8.48;6.43;;;;;;;;;;5006584;28;20022;-59
2023/06/21 04:11:50;;;;;;;9.95;6.43;;;;;;;;;;4997695;28;20030;-59
2023/06/21 04:14:15;;;;;;;10.98;6.50;;;;;;;;;;4996577;28;20038;-60
2023/06/21 04:16:42;;;;;;;10.63;6.88;;;;;;;;;;4994376;28;20041;-60
2023/06/21 04:19:08;;;;;;;9.52;6.93;;;;;;;;;;4995140;28;20026;-60
2023/06/21 04:21:33;;;;;;;9.32;6.97;;;;;;;;;;4994295;28;20103;-59
2023/06/21 04:23:59;;;;;;;9.27;7.10;;;;;;;;;;4995451;28;20118;-60
2023/06/21 04:26:24;;;;;;;10.23;7.18;;;;;;;;;;5013865;28;20159;-60
2023/06/21 04:28:50;;;;;;;11.25;7.35;;;;;;;;;;5014673;28;20034;-60
2023/06/21 04:31:15;;;;;;;11.07;6.82;;;;;;;;;;5009633;28;20353;-60
2023/06/21 04:33:41;;;;;;;13.70;7.80;;;;;;;;;;4994642;28;20027;-60
2023/06/21 04:36:06;;;;;;;10.35;7.40;;;;;;;;;;4995264;28;20037;-60
2023/06/21 04:38:33;;;;;;;10.23;7.68;;;;;;;;;;4993619;28;20034;-60
2023/06/21 04:40:58;;;;;;;11.23;7.55;;;;;;;;;;4994671;28;20046;-60
2023/06/21 04:43:25;;;;;;;11.45;7.85;;;;;;;;;;4994047;28;20038;-60
2023/06/21 04:45:50;;;;;;;11.30;7.70;;;;;;;;;;4994741;28;20030;-60
2023/06/21 04:48:16;;;;;;;10.93;7.97;;;;;;;;;;4994089;28;20031;-60
2023/06/21 04:50:45;;;;;;;11.52;7.60;;;;;;;;;;5010090;28;20490;-60
2023/06/21 04:53:11;;;;;;;11.52;7.30;;;;;;;;;;5014035;28;20471;-60
2023/06/21 04:55:42;;;;;;;10.48;7.32;;;;;;;;;;5013135;28;20520;-60
2023/06/21 04:58:12;;;;;;;11.60;7.47;;;;;;;;;;5013994;28;20100;-60
2023/06/21 05:00:38;;;;;;;11.18;7.57;;;;;;;;;;5013137;28;20036;-60
2023/06/21 05:03:03;;;;;;;10.02;7.78;;;;;;;;;;5010836;28;20026;-60
2023/06/21 05:05:29;;;;;;;10.85;7.45;;;;;;;;;;5013142;28;20037;-60
2023/06/21 05:07:54;;;;;;;11.32;7.78;;;;;;;;;;5013931;28;20042;-60
2023/06/21 05:10:20;;;;;;;11.70;7.60;;;;;;;;;;5012794;28;20132;-60
2023/06/21 05:12:45;;;;;;;14.65;8.18;;;;;;;;;;5013615;28;20425;-60
2023/06/21 05:15:11;;;;;;;11.27;7.63;;;;;;;;;;5013434;28;20025;-60
2023/06/21 05:17:36;;;;;;;11.20;7.97;;;;;;;;;;5010386;28;20758;-60
2023/06/21 05:20:04;;;;;;;13.45;8.00;;;;;;;;;;5013636;28;20038;-61
2023/06/21 05:22:30;;;;;;;12.70;8.20;;;;;;;;;;5012437;28;20038;-61
2023/06/21 05:24:55;;;;;;;11.82;7.82;;;;;;;;;;5013614;28;20025;-60
2023/06/21 05:27:20;;;;;;;12.88;8.05;;;;;;;;;;5012392;28;20044;-60
2023/06/21 05:29:46;;;;;;;13.02;8.32;;;;;;;;;;5013615;28;20030;-60
2023/06/21 05:32:11;;;;;;;13.20;8.65;;;;;;;;;;5007941;28;20426;-60
2023/06/21 05:34:37;;;;;;;13.57;8.70;;;;;;;;;;5012536;28;20104;-61
2023/06/21 05:37:02;;;;;;;13.82;8.52;;;;;;;;;;5012942;28;20060;-61
2023/06/21 05:39:27;;;;;;;13.80;8.65;;;;;;;;;;5010490;28;20386;-60
2023/06/21 05:41:53;;;;;;;14.77;8.77;;;;;;;;;;5009358;28;20145;-60
2023/06/21 05:44:18;;;;;;;14.13;9.13;;;;;;;;;;4992955;28;20109;-60
2023/06/21 05:46:44;;;;;;;12.15;8.73;;;;;;;;;;4993071;28;20038;-63
2023/06/21 05:49:09;;;;;;;14.77;9.02;;;;;;;;;;4993235;28;20122;-62
2023/06/21 05:51:35;;;;;;;14.23;8.80;;;;;;;;;;4992433;28;20479;-61
2023/06/21 05:54:00;;;;;;;14.45;8.73;;;;;;;;;;4993219;28;20113;-62
2023/06/21 05:56:27;;;;;;;13.68;8.63;;;;;;;;;;4992526;28;20046;-61
2023/06/21 05:58:53;;;;;;;12.52;8.75;;;;;;;;;;4992753;28;20092;-62
2023/06/21 06:01:18;;;;;;;15.35;8.80;;;;;;;;;;4993104;28;20039;-61
2023/06/21 06:03:44;;;;;;;17.30;9.40;;;;;;;;;;4992340;28;20386;-61
2023/06/21 06:06:13;;;;;;;14.65;9.10;;;;;;;;;;4993395;28;20053;-63
2023/06/21 06:08:38;;;;;;;15.70;8.63;;;;;;;;;;4992244;28;20293;-64
2023/06/21 06:11:03;;;;;;;14.38;8.65;;;;;;;;;;4993078;28;20466;-62
2023/06/21 06:13:29;;;;;;;11.25;8.80;;;;;;;;;;5005714;28;20052;-59
2023/06/21 06:15:54;;;;;;;13.38;8.70;;;;;;;;;;5012381;28;20478;-60
2023/06/21 06:18:20;;;;;;;13.00;8.13;;;;;;;;;;5012325;28;20109;-64
2023/06/21 06:20:45;;;;;;;12.20;8.63;;;;;;;;;;5010836;28;20033;-60
2023/06/21 06:23:11;;;;;;;11.73;8.15;;;;;;;;;;5012320;28;20072;-60
2023/06/21 06:25:37;;;;;;;13.07;8.55;;;;;;;;;;5011585;28;20037;-60
2023/06/21 06:28:03;;;;;;;11.70;8.68;;;;;;;;;;5012091;28;20037;-61
2023/06/21 06:30:28;;;;;;;14.55;8.70;;;;;;;;;;5011494;28;20034;-60
2023/06/21 06:32:54;;;;;;;14.60;8.40;;;;;;;;;;5010635;28;20066;-63
2023/06/21 06:35:19;;;;;;;13.07;8.65;;;;;;;;;;5012612;28;20034;-60
2023/06/21 06:37:44;;;;;;;16.52;9.30;;;;;;;;;;5009820;28;20116;-60
2023/06/21 06:40:10;;;;;;;11.02;8.40;;;;;;;;;;5012020;28;20052;-60
2023/06/21 06:42:36;;;;;;;13.80;8.68;;;;;;;;;;5009984;28;20022;-60
2023/06/21 06:45:01;;;;;;;13.00;9.70;;;;;;;;;;5012194;28;20038;-60
2023/06/21 06:47:28;;;;;;;13.68;9.85;;;;;;;;;;5010247;28;20171;-60
2023/06/21 06:49:54;;;;;;;13.50;9.88;;;;;;;;;;5011197;28;20091;-62
2023/06/21 06:52:19;;;;;;;16.00;10.70;;;;;;;;;;5012072;28;20447;-61
2023/06/21 06:54:44;;;;;;;15.98;11.70;;;;;;;;;;5011089;28;20038;-66
2023/06/21 06:57:10;;;;;;;15.48;11.07;;;;;;;;;;5011955;28;20030;-61
2023/06/21 06:59:35;;;;;;;18.75;12.32;;;;;;;;;;5011430;28;20558;-61
2023/06/21 07:02:00;;;;;;;18.85;14.65;;;;;;;;;;5008903;28;20109;-61
2023/06/21 07:04:28;;;;;;;19.65;15.43;;;;;;;;;;5011010;28;20034;-61
2023/06/21 07:06:54;;;;;;;16.73;14.40;;;;;;;;;;5011819;28;20026;-61
2023/06/21 07:09:19;;;;;;;18.48;14.43;;;;;;;;;;5011905;28;20040;-63
2023/06/21 07:11:45;;;;;;;16.98;13.77;;;;;;;;;;5010703;28;20385;-63
2023/06/21 07:14:10;;;;;;;18.92;14.85;;;;;;;;;;5008199;28;20403;-62
2023/06/21 07:16:41;;;;;;;18.02;15.32;;;;;;;;;;5007972;28;20036;-62
2023/06/21 07:19:07;;;;;;;17.80;15.63;;;;;;;;;;5011856;28;20062;-61
2023/06/21 07:21:32;;;;;;;20.25;15.70;;;;;;;;;;5009703;28;20061;-62
2023/06/21 07:23:57;;;;;;;20.38;15.52;;;;;;;;;;5011621;28;20459;-62
2023/06/21 07:26:23;;;;;;;21.65;17.13;;;;;;;;;;5011590;28;20391;-63
2023/06/21 07:28:48;;;;;;;22.85;17.08;;;;;;;;;;5011211;28;20459;-62
2023/06/21 07:31:14;;;;;;;21.45;18.52;;;;;;;;;;4999488;28;20118;-62
2023/06/21 07:33:39;;;;;;;21.80;18.02;;;;;;;;;;4990603;28;20034;-62
2023/06/21 07:36:05;;;;;;;23.00;18.42;;;;;;;;;;4991905;28;20038;-62
2023/06/21 07:38:30;;;;;;;21.23;18.70;;;;;;;;;;4991156;28;20062;-62
2023/06/21 07:40:56;;;;;;;24.10;18.92;;;;;;;;;;4992086;28;20049;-62
2023/06/21 07:43:21;;;;;;;22.05;17.17;;;;;;;;;;4991843;28;20057;-63
2023/06/21 07:45:47;;;;;;;19.52;16.70;;;;;;;;;;4991267;28;20814;-63
2023/06/21 07:48:13;;;;;;;20.58;17.77;;;;;;;;;;4992710;28;20121;-63
2023/06/21 07:50:39;;;;;;;20.80;17.48;;;;;;;;;;5012535;28;20489;-62
2023/06/21 07:53:05;;;;;;;18.67;16.42;;;;;;;;;;5014942;28;20109;-62
2023/06/21 07:55:31;;;;;;;19.30;16.17;;;;;;;;;;5014121;28;20093;-60
2023/06/21 07:57:56;;;;;;;20.25;17.27;;;;;;;;;;5015057;28;20494;-62
2023/06/21 08:00:22;;;;;;;23.35;20.63;;;;;;;;;;5015068;28;20087;-62
2023/06/21 08:02:52;;;;;;;27.73;21.65;;;;;;;;;;5014257;28;20032;-63
2023/06/21 08:05:18;;;;;;;24.83;20.73;;;;;;;;;;5007514;28;20129;-62
2023/06/21 08:07:43;;;;;;;25.15;21.38;;;;;;;;;;5013854;28;20096;-61
2023/06/21 08:10:09;;;;;;;24.92;20.38;;;;;;;;;;5014953;28;20030;-61
2023/06/21 08:12:35;;;;;;;25.70;20.40;;;;;;;;;;5012811;28;20032;-61
2023/06/21 08:15:00;;;;;;;24.48;19.17;;;;;;;;;;5014878;28;20034;-61
2023/06/21 08:17:26;;;;;;;23.45;17.98;;;;;;;;;;5014582;28;20030;-60
2023/06/21 08:19:51;;;;;;;23.30;18.17;;;;;;;;;;5013169;28;20025;-61
2023/06/21 08:22:17;;;;;;;21.13;18.88;;;;;;;;;;5013564;28;20125;-61
2023/06/21 08:24:42;;;;;;;22.25;17.90;;;;;;;;;;5013733;28;20115;-62
2023/06/21 08:27:08;;;;;;;18.83;16.40;;;;;;;;;;5014712;28;20459;-62
2023/06/21 08:29:33;;;;;;;17.63;15.40;;;;;;;;;;5013781;28;20029;-62
2023/06/21 08:31:59;;;;;;;18.45;15.88;;;;;;;;;;5012004;28;20033;-62
2023/06/21 08:34:24;;;;;;;16.88;14.65;;;;;;;;;;5014361;28;20034;-61
2023/06/21 08:36:49;;;;;;;16.50;13.90;;;;;;;;;;5012462;28;20038;-60
2023/06/21 08:39:15;;;;;;;19.65;14.77;;;;;;;;;;5014307;28;20026;-60
2023/06/21 08:41:41;;;;;;;17.92;16.02;;;;;;;;;;5013139;28;20069;-61
2023/06/21 08:44:06;;;;;;;20.42;16.98;;;;;;;;;;5014176;28;20030;-61
2023/06/21 08:46:35;;;;;;;17.23;15.43;;;;;;;;;;4995470;28;20034;-61
2023/06/21 08:49:04;;;;;;;15.70;13.05;;;;;;;;;;4994888;28;20030;-60
2023/06/21 08:51:32;;;;;;;15.50;13.73;;;;;;;;;;4994207;28;20042;-61
2023/06/21 08:54:05;;;;;;;15.05;13.32;;;;;;;;;;4994364;28;20256;-61
2023/06/21 08:56:37;;;;;;;16.52;13.85;;;;;;;;;;4993890;28;20037;-61
2023/06/21 08:59:05;;;;;;;17.55;14.85;;;;;;;;;;4994286;28;20030;-61
2023/06/21 09:01:44;;;;;;;18.10;15.52;;;;;;;;;;5008619;28;20105;-61
2023/06/21 09:04:16;;;;;;;17.65;15.48;;;;;;;;;;5006658;28;20050;-62
2023/06/21 09:06:43;;;;;;;17.85;15.20;;;;;;;;;;4993579;28;20431;-61
2023/06/21 09:09:09;;;;;;;17.23;15.20;;;;;;;;;;4994240;28;20089;-61
2023/06/21 09:11:36;;;;;;;17.73;15.80;;;;;;;;;;4993367;28;20424;-62
2023/06/21 09:14:02;;;;;;;18.77;16.77;;;;;;;;;;4993632;28;20027;-62
2023/06/21 09:16:27;;;;;;;18.15;16.15;;;;;;;;;;4994157;28;20022;-61
2023/06/21 09:18:53;;;;;;;19.58;16.13;;;;;;;;;;4998229;28;20029;-61
2023/06/21 09:21:20;;;;;;;19.33;17.30;;;;;;;;;;5012557;28;20026;-61
2023/06/21 09:23:45;;;;;;;19.33;17.08;;;;;;;;;;5012717;28;20040;-61
2023/06/21 09:26:11;;;;;;;18.80;16.52;;;;;;;;;;5013474;28;20034;-61
2023/06/21 09:28:38;;;;;;;23.30;16.90;;;;;;;;;;5012506;28;20029;-62
2023/06/21 09:31:03;;;;;;;18.17;16.17;;;;;;;;;;5010410;28;20367;-62
2023/06/21 09:33:29;;;;;;;16.08;14.48;;;;;;;;;;5013146;28;20493;-62
2023/06/21 09:35:56;;;;;;;16.50;13.23;;;;;;;;;;5012240;28;20030;-62
2023/06/21 09:38:26;;;;;;;14.75;13.05;;;;;;;;;;5013216;28;20459;-62
2023/06/21 09:40:52;;;;;;;14.05;12.65;;;;;;;;;;5012411;28;20053;-62
2023/06/21 09:43:20;;;;;;;15.90;12.48;;;;;;;;;;5011673;28;20037;-62
2023/06/21 09:46:03;;;;;;;14.95;12.75;;;;;;;;;;5010902;28;20486;-62
2023/06/21 09:48:37;;;;;;;13.60;11.68;;;;;;;;;;5013209;28;20370;-62
2023/06/21 09:51:11;;;;;;;13.63;11.93;;;;;;;;;;5011954;28;20068;-62
2023/06/21 09:53:36;;;;;;;12.38;10.27;;;;;;;;;;5012353;28;20109;-62
2023/06/21 09:56:03;;;;;;;11.13;9.35;;;;;;;;;;5012913;28;20133;-62
2023/06/21 09:58:33;;;;;;;11.63;10.32;;;;;;;;;;5006709;28;20034;-62
2023/06/21 10:00:58;;;;;;;;;;;;;;;;;;5012962;28;20033;-62
2023/06/21 10:03:25;;;;;;;11.57;9.85;;;;;;;;;;5012668;28;19987;-62
2023/06/21 10:05:58;;;;;;;11.57;9.88;;;;;;;;;;5011622;28;20029;-62
2023/06/21 10:08:33;;;;;;;12.15;10.00;;;;;;;;;;4999592;28;20045;-62
2023/06/21 10:10:59;;;;;;;12.40;9.82;;;;;;;;;;5000789;28;20482;-62
2023/06/21 10:13:33;;;;;;;18.77;9.20;;;;;;;;;;5011568;28;20034;-62
2023/06/21 10:16:00;;;;;;;10.93;8.73;;;;;;;;;;5012001;28;20042;-61
2023/06/21 10:18:27;;;;;;;11.27;8.90;;;;;;;;;;5012598;28;20030;-62
2023/06/21 10:20:55;;;;;;;8.50;6.72;;;;;;;;;;5011794;28;20026;-63
2023/06/21 10:23:22;;;;;;;8.70;6.72;;;;;;;;;;5012559;28;20099;-62
2023/06/21 10:25:51;;;;;;;9.18;6.15;;;;;;;;;;5001497;28;20034;-63
2023/06/21 10:28:18;;;;;;;6.37;5.50;;;;;;;;;;4993502;28;20038;-62
2023/06/21 10:30:44;;;;;;;8.13;5.60;;;;;;;;;;4991685;28;20334;-62
2023/06/21 10:33:14;;;;;;;8.38;6.10;;;;;;;;;;4992800;28;20042;-62
2023/06/21 10:35:45;;;;;;;6.82;6.13;;;;;;;;;;4991855;28;20085;-62
2023/06/21 10:38:19;;;;;;;8.65;6.60;;;;;;;;;;4992643;28;20579;-63
2023/06/21 10:40:46;;;;;;;9.90;6.40;;;;;;;;;;4991648;28;20061;-63
2023/06/21 10:43:13;;;;;;;11.23;8.00;;;;;;;;;;4992752;28;20030;-62
2023/06/21 10:45:40;;;;;;;11.77;8.50;;;;;;;;;;4991812;28;20034;-63
2023/06/21 10:48:08;;;;;;;14.45;9.10;;;;;;;;;;4992564;28;20467;-62
2023/06/21 10:50:33;;;;;;;12.95;9.40;;;;;;;;;;4992547;28;20030;-64
2023/06/21 10:52:59;;;;;;;12.93;9.13;;;;;;;;;;4991601;28;20080;-62
2023/06/21 10:55:24;;;;;;;12.02;9.63;;;;;;;;;;4991968;28;20460;-65
2023/06/21 10:57:54;;;;;;;12.30;9.95;;;;;;;;;;4992218;28;20034;-62
2023/06/21 11:00:21;;;;;;;11.32;9.30;;;;;;;;;;4992540;28;20030;-61
2023/06/21 11:02:47;;;;;;;13.25;8.93;;;;;;;;;;4991602;28;20041;-61
2023/06/21 11:05:21;;;;;;;9.80;8.77;;;;;;;;;;4992324;28;20034;-63
2023/06/21 11:07:55;;;;;;;11.38;8.27;;;;;;;;;;4991486;28;20336;-62
2023/06/21 11:10:39;;;;;;;9.50;7.55;;;;;;;;;;4997659;28;20096;-62
2023/06/21 11:13:05;;;;;;;12.95;8.77;;;;;;;;;;5012436;28;20052;-61
2023/06/21 11:15:31;;;;;;;10.27;9.00;;;;;;;;;;5012046;28;20037;-62
2023/06/21 11:18:05;;;;;;;10.25;8.57;;;;;;;;;;5009280;28;20255;-62
2023/06/21 11:20:46;;;;;;;9.85;8.18;;;;;;;;;;5012127;28;20034;-63
2023/06/21 11:23:18;;;;;;;10.90;6.57;;;;;;;;;;5012184;28;20037;-62
2023/06/21 11:26:12;;;;;;;9.73;6.70;;;;;;;;;;5012267;28;20026;-62
2023/06/21 11:28:47;;;;;;;8.80;6.90;;;;;;;;;;5013669;28;20041;-62
2023/06/21 11:31:16;;;;;;;8.05;7.28;;;;;;;;;;5015917;28;20060;-62
2023/06/21 11:33:47;;;;;;;8.02;7.22;;;;;;;;;;5012311;28;20350;-62
2023/06/21 11:36:13;;;;;;;8.25;6.68;;;;;;;;;;5015373;28;20045;-63
2023/06/21 11:39:19;;;;;;;8.00;6.10;;;;;;;;;;5014886;28;20367;-61
2023/06/21 11:41:45;;;;;;;7.55;5.78;;;;;;;;;;5004356;28;20069;-62
2023/06/21 11:44:19;;;;;;;8.80;6.07;;;;;;;;;;5009730;28;20069;-61
2023/06/21 11:46:45;;;;;;;8.50;6.60;;;;;;;;;;5014538;28;20026;-62
2023/06/21 11:49:11;;;;;;;9.88;6.15;;;;;;;;;;5015181;28;20053;-62
2023/06/21 11:51:49;;;;;;;9.25;6.55;;;;;;;;;;5015379;28;20030;-62
2023/06/21 11:54:37;;;;;;;7.65;6.20;;;;;;;;;;5015462;28;20041;-61
2023/06/21 11:57:06;;;;;;;10.18;5.78;;;;;;;;;;5014471;28;20504;-61
2023/06/21 11:59:33;;;;;;;8.15;5.30;;;;;;;;;;5000860;28;20127;-61
2023/06/21 12:02:16;;;;;;;7.32;5.45;;;;;;;;;;4994939;28;20034;-61
2023/06/21 12:04:43;;;;;;;6.07;5.47;;;;;;;;;;4994713;28;20375;-61
2023/06/21 12:07:09;;;;;;;8.32;5.80;;;;;;;;;;4995236;28;20034;-61
2023/06/21 12:09:35;;;;;;;8.68;5.30;;;;;;;;;;4995401;28;20076;-61
2023/06/21 12:12:01;;;;;;;7.85;5.60;;;;;;;;;;4994043;28;20038;-62
2023/06/21 12:14:26;;;;;;;7.28;5.50;;;;;;;;;;4995164;28;20372;-62
2023/06/21 12:16:52;;;;;;;5.93;5.10;;;;;;;;;;4993956;28;20053;-61
2023/06/21 12:19:21;;;;;;;5.38;4.30;;;;;;;;;;4995062;28;20081;-62
2023/06/21 12:21:47;;;;;;;7.35;4.70;;;;;;;;;;4994267;28;20356;-61
2023/06/21 12:24:13;;;;;;;8.13;5.20;;;;;;;;;;4994644;28;20030;-62
2023/06/21 12:26:49;;;;;;;5.68;5.07;;;;;;;;;;5008498;28;20034;-61
2023/06/21 12:29:15;;;;;;;7.43;5.20;;;;;;;;;;5013159;28;20034;-62
2023/06/21 12:31:43;;;;;;;7.20;4.88;;;;;;;;;;5014188;28;20034;-62
2023/06/21 12:34:15;;;;;;;7.03;4.97;;;;;;;;;;4997909;28;20364;-62
2023/06/21 12:36:43;;;;;;;7.72;5.10;;;;;;;;;;4993690;28;20038;-61
2023/06/21 12:39:08;;;;;;;6.13;4.82;;;;;;;;;;4994156;28;20049;-62
2023/06/21 12:41:34;;;;;;;6.15;4.85;;;;;;;;;;4994766;28;20395;-62
2023/06/21 12:44:02;;;;;;;7.32;5.00;;;;;;;;;;4993722;28;20123;-62
2023/06/21 12:46:35;;;;;;;7.05;5.20;;;;;;;;;;4993300;28;20026;-61
2023/06/21 12:49:01;;;;;;;6.43;5.00;;;;;;;;;;4993336;28;20192;-62
2023/06/21 12:51:31;;;;;;;6.00;5.03;;;;;;;;;;4993375;28;20538;-62
2023/06/21 12:54:00;;;;;;;5.70;4.82;;;;;;;;;;4993816;28;20023;-62
2023/06/21 12:56:42;;;;;;;8.43;5.00;;;;;;;;;;4993250;28;20042;-62
2023/06/21 12:59:08;;;;;;;7.00;4.68;;;;;;;;;;4993820;28;20034;-62
2023/06/21 13:01:35;;;;;;;7.50;4.85;;;;;;;;;;4994499;28;20026;-62
2023/06/21 13:04:06;;;;;;;5.78;5.00;;;;;;;;;;5009300;28;20037;-62
2023/06/21 13:06:31;;;;;;;6.55;4.60;;;;;;;;;;5013747;28;20053;-61
2023/06/21 13:08:57;;;;;;;7.82;4.70;;;;;;;;;;5013028;28;20034;-62
2023/06/21 13:11:24;;;;;;;8.93;4.68;;;;;;;;;;5013808;28;20030;-62
2023/06/21 13:13:50;;;;;;;5.47;4.28;;;;;;;;;;5012994;28;20080;-61
2023/06/21 13:16:16;;;;;;;5.38;4.10;;;;;;;;;;5013664;28;20029;-61
2023/06/21 13:18:44;;;;;;;6.50;4.18;;;;;;;;;;5012061;28;20041;-62
2023/06/21 13:21:14;;;;;;;7.90;4.53;;;;;;;;;;5009515;28;20042;-61
2023/06/21 13:23:40;;;;;;;7.75;4.80;;;;;;;;;;5013740;28;20037;-62
2023/06/21 13:26:06;;;;;;;6.93;4.85;;;;;;;;;;5012542;28;20093;-62
2023/06/21 13:28:31;;;;;;;9.25;4.80;;;;;;;;;;5007972;28;20097;-65
2023/06/21 13:30:56;;;;;;;6.63;4.30;;;;;;;;;;4991761;28;20031;-62
2023/06/21 13:33:22;;;;;;;5.40;4.50;;;;;;;;;;4993627;28;20054;-62
2023/06/21 13:35:47;;;;;;;5.03;3.92;;;;;;;;;;4993173;28;20077;-62
2023/06/21 13:38:13;;;;;;;5.00;3.80;;;;;;;;;;5009572;28;20038;-62
2023/06/21 13:40:40;;;;;;;5.38;4.00;;;;;;;;;;5013097;28;20080;-61
2023/06/21 13:43:05;;;;;;;6.60;4.32;;;;;;;;;;5012309;28;20030;-62
2023/06/21 13:45:31;;;;;;;4.80;4.20;;;;;;;;;;5013019;28;20030;-62
2023/06/21 13:47:56;;;;;;;8.70;3.90;;;;;;;;;;5012019;28;20045;-62
2023/06/21 13:50:21;;;;;;;5.63;3.75;;;;;;;;;;5011787;28;20030;-61
2023/06/21 13:52:47;;;;;;;6.68;3.85;;;;;;;;;;5010560;28;20060;-62
2023/06/21 13:55:13;;;;;;;6.32;4.10;;;;;;;;;;5012356;28;20467;-62
2023/06/21 13:57:40;;;;;;;5.07;4.00;;;;;;;;;;5012719;28;20040;-62
2023/06/21 14:00:13;;;;;;;4.50;3.70;;;;;;;;;;5012061;28;20115;-62
2023/06/21 14:02:42;;;;;;;6.82;3.90;;;;;;;;;;5012954;28;20034;-61
2023/06/21 14:05:09;;;;;;;5.00;4.03;;;;;;;;;;5012012;28;20092;-62
2023/06/21 14:07:38;;;;;;;6.25;3.85;;;;;;;;;;5009118;28;20100;-62
2023/06/21 14:10:05;;;;;;;5.05;3.58;;;;;;;;;;5011931;28;20084;-62
2023/06/21 14:12:30;;;;;;;5.10;3.58;;;;;;;;;;5012734;28;20466;-62
2023/06/21 14:14:56;;;;;;;4.43;3.83;;;;;;;;;;5011097;28;20090;-62
2023/06/21 14:17:22;;;;;;;7.35;3.90;;;;;;;;;;4992547;28;20065;-62
2023/06/21 14:19:48;;;;;;;8.02;3.80;;;;;;;;;;4992748;28;20026;-62
2023/06/21 14:22:14;;;;;;;5.85;3.58;;;;;;;;;;4992198;28;20088;-62
2023/06/21 14:24:39;;;;;;;5.47;4.00;;;;;;;;;;4992893;28;20035;-62
2023/06/21 14:27:05;;;;;;;6.40;4.07;;;;;;;;;;5007027;28;20035;-63
2023/06/21 14:29:31;;;;;;;5.78;3.67;;;;;;;;;;4991566;28;20038;-63
2023/06/21 14:31:56;;;;;;;4.30;3.70;;;;;;;;;;5008289;28;20033;-63
2023/06/21 14:34:22;;;;;;;6.13;3.95;;;;;;;;;;5012069;28;20030;-62
2023/06/21 14:36:48;;;;;;;7.88;4.10;;;;;;;;;;5010953;28;20108;-63